createdAt,value
2022-10-12T00:00:38.601Z,99993.66
2022-10-12T00:03:09.252Z,99996.34
2022-10-12T00:05:37.115Z,99990.09
2022-10-12T00:08:04.904Z,99994.41
2022-10-12T00:10:33.065Z,99996.25
2022-10-12T00:13:01.174Z,99999.69
2022-10-12T00:15:28.954Z,99992.87
2022-10-12T00:17:57.045Z,99994.16
2022-10-12T00:20:24.894Z,99997.72
2022-10-12T00:22:52.688Z,99998.72
2022-10-12T00:25:20.993Z,99995.06
2022-10-12T00:27:48.772Z,99994.06
2022-10-12T00:30:16.775Z,99993.91
2022-10-12T00:32:44.834Z,99999.97
2022-10-12T00:35:12.604Z,99998.41
2022-10-12T00:37:40.476Z,100001.69
2022-10-12T00:40:09.282Z,99998.28
2022-10-12T00:42:37.103Z,99994.78
2022-10-12T00:45:05.375Z,99995.16
2022-10-12T00:47:38.886Z,99989.84
2022-10-12T00:50:07.487Z,99994.97
2022-10-12T00:52:41.322Z,99993.31
2022-10-12T00:55:10.953Z,100001.31
2022-10-12T00:57:43.245Z,99985.56
2022-10-12T01:00:14.145Z,99993.56
2022-10-12T01:02:43.654Z,99999.63
2022-10-12T01:05:12.035Z,99991.88
2022-10-12T01:07:40.068Z,99993.63
2022-10-12T01:10:09.003Z,99996.50
2022-10-12T01:12:37.155Z,99995.63
2022-10-12T01:15:05.955Z,100003.34
2022-10-12T01:18:01.425Z,100003.25
2022-10-12T01:20:38.324Z,100009.31
2022-10-12T01:23:18.946Z,100009.41
2022-10-12T01:25:58.573Z,100013.75
2022-10-12T01:28:54.578Z,100014.66
2022-10-12T01:31:32.839Z,100013.13
2022-10-12T01:34:04.103Z,100015.66
2022-10-12T01:36:41.376Z,100020.91
2022-10-12T01:39:16.675Z,100019.16
2022-10-12T01:41:50.863Z,100026.16
2022-10-12T01:44:23.473Z,100026.81
2022-10-12T01:46:55.699Z,100025.97
2022-10-12T01:49:26.893Z,100021.66
2022-10-12T01:52:05.394Z,100023.53
2022-10-12T01:54:47.564Z,100025.28
2022-10-12T01:57:36.787Z,100031.31
2022-10-12T02:00:10.713Z,100029.50
2022-10-12T02:02:51.034Z,100027.63
2022-10-12T02:05:31.133Z,100033.69
2022-10-12T02:08:20.025Z,100024.91
2022-10-12T02:11:05.473Z,100032.72
2022-10-12T02:13:36.915Z,100033.63
2022-10-12T02:16:08.533Z,100026.59
2022-10-12T02:18:39.714Z,100024.81
2022-10-12T02:21:08.855Z,100025.72
2022-10-12T02:23:37.306Z,100017.91
2022-10-12T02:26:06.084Z,100026.50
2022-10-12T02:28:36.476Z,100018.59
2022-10-12T02:31:36.265Z,100028.38
2022-10-12T02:34:16.453Z,100018.69
2022-10-12T02:36:44.254Z,100022.16
2022-10-12T02:39:15.266Z,100018.06
2022-10-12T02:41:48.424Z,100016.13
2022-10-12T02:44:20.253Z,100014.41
2022-10-12T02:46:48.854Z,100023.13
2022-10-12T02:49:17.900Z,100020.59
2022-10-12T02:51:45.914Z,100025.88
2022-10-12T02:54:13.833Z,100029.12
2022-10-12T02:56:46.085Z,100036.00
2022-10-12T02:59:15.131Z,100036.87
2022-10-12T03:01:44.022Z,100031.13
2022-10-12T03:04:11.815Z,100027.25
2022-10-12T03:06:39.756Z,100028.81
2022-10-12T03:09:08.088Z,100026.56
2022-10-12T03:11:37.856Z,100026.34
2022-10-12T03:14:05.624Z,100028.09
2022-10-12T03:16:33.663Z,100034.25
2022-10-12T03:19:01.435Z,100032.78
2022-10-12T03:21:29.518Z,100034.38
2022-10-12T03:23:57.801Z,100032.81
2022-10-12T03:26:25.896Z,100034.59
2022-10-12T03:28:53.641Z,100034.59
2022-10-12T03:31:21.814Z,100031.81
2022-10-12T03:33:49.674Z,100036.09
2022-10-12T03:36:17.571Z,100033.59
2022-10-12T03:38:45.654Z,100038.88
2022-10-12T03:41:13.414Z,100033.66
2022-10-12T03:43:41.227Z,100038.00
2022-10-12T03:46:09.325Z,100036.31
2022-10-12T03:48:37.248Z,100031.09
2022-10-12T03:51:05.017Z,100024.97
2022-10-12T03:53:33.304Z,100034.56
2022-10-12T03:56:01.169Z,100037.13
2022-10-12T03:58:29.014Z,100034.47
2022-10-12T04:00:57.144Z,100029.22
2022-10-12T04:03:25.225Z,100023.06
2022-10-12T04:05:54.895Z,100017.13
2022-10-12T04:08:23.751Z,100022.97
2022-10-12T04:10:51.944Z,100026.34
2022-10-12T04:13:19.794Z,100027.34
2022-10-12T04:15:47.534Z,100016.69
2022-10-12T04:18:15.684Z,100025.31
2022-10-12T04:20:43.448Z,100024.72
2022-10-12T04:23:11.236Z,100027.19
2022-10-12T04:25:39.875Z,100020.44
2022-10-12T04:28:08.084Z,100032.94
2022-10-12T04:30:35.894Z,100031.53
2022-10-12T04:33:04.385Z,100030.22
2022-10-12T04:35:32.414Z,100031.84
2022-10-12T04:38:00.173Z,100029.81
2022-10-12T04:40:28.336Z,100028.03
2022-10-12T04:42:56.391Z,100037.63
2022-10-12T04:45:24.134Z,100032.81
2022-10-12T04:47:52.205Z,100041.97
2022-10-12T04:50:20.075Z,100035.56
2022-10-12T04:52:47.825Z,100040.87
2022-10-12T04:55:15.925Z,100035.19
2022-10-12T04:57:45.184Z,100039.31
2022-10-12T05:00:13.384Z,100039.06
2022-10-12T05:02:41.544Z,100043.63
2022-10-12T05:05:09.784Z,100050.63
2022-10-12T05:07:37.805Z,100047.03
2022-10-12T05:10:06.548Z,100042.38
2022-10-12T05:12:34.324Z,100045.75
2022-10-12T05:15:02.482Z,100048.69
2022-10-12T05:17:30.823Z,100052.16
2022-10-12T05:19:58.928Z,100050.13
2022-10-12T05:22:26.724Z,100054.31
2022-10-12T05:24:54.874Z,100050.41
2022-10-12T05:27:23.053Z,100050.41
2022-10-12T05:29:50.732Z,100056.12
2022-10-12T05:32:18.755Z,100061.59
2022-10-12T05:34:46.617Z,100059.16
2022-10-12T05:37:14.446Z,100059.81
2022-10-12T05:39:42.552Z,100053.87
2022-10-12T05:42:10.305Z,100057.31
2022-10-12T05:44:38.083Z,100062.56
2022-10-12T05:47:06.238Z,100059.78
2022-10-12T05:49:33.932Z,100070.63
2022-10-12T05:52:01.778Z,100066.38
2022-10-12T05:54:30.870Z,100068.47
2022-10-12T05:56:59.476Z,100065.88
2022-10-12T05:59:27.403Z,100079.81
2022-10-12T06:01:55.522Z,100070.87
2022-10-12T06:04:23.725Z,100078.13
2022-10-12T06:06:51.534Z,100077.75
2022-10-12T06:09:19.404Z,100088.09
2022-10-12T06:11:49.127Z,100088.13
2022-10-12T06:14:18.695Z,100079.66
2022-10-12T06:16:47.652Z,100080.13
2022-10-12T06:19:18.145Z,100085.88
2022-10-12T06:21:45.914Z,100086.44
2022-10-12T06:24:13.663Z,100092.22
2022-10-12T06:26:41.694Z,100088.50
2022-10-12T06:29:09.555Z,100094.91
2022-10-12T06:31:38.591Z,100096.56
2022-10-12T06:34:06.895Z,100092.44
2022-10-12T06:36:34.921Z,100092.13
2022-10-12T06:39:02.673Z,100094.87
2022-10-12T06:41:30.673Z,100097.38
2022-10-12T06:43:59.008Z,100107.03
2022-10-12T06:46:26.865Z,100104.94
2022-10-12T06:48:54.995Z,100108.28
2022-10-12T06:51:22.812Z,100104.87
2022-10-12T06:53:50.592Z,100102.06
2022-10-12T06:56:18.715Z,100111.16
2022-10-12T06:58:46.914Z,100112.44
2022-10-12T07:01:18.898Z,100110.50
2022-10-12T07:03:49.637Z,100112.34
2022-10-12T07:06:17.824Z,100111.16
2022-10-12T07:08:45.809Z,100113.81
2022-10-12T07:11:14.167Z,100117.31
2022-10-12T07:13:42.420Z,100113.44
2022-10-12T07:16:10.264Z,100117.78
2022-10-12T07:18:39.284Z,100109.06
2022-10-12T07:21:07.241Z,100112.06
2022-10-12T07:23:36.160Z,100113.03
2022-10-12T07:26:04.363Z,100108.59
2022-10-12T07:28:34.992Z,100106.13
2022-10-12T07:31:05.031Z,100107.81
2022-10-12T07:33:34.683Z,100112.97
2022-10-12T07:36:13.997Z,100104.06
2022-10-12T07:38:48.191Z,100110.94
2022-10-12T07:41:16.695Z,100109.34
2022-10-12T07:43:45.165Z,100107.69
2022-10-12T07:46:13.269Z,100113.50
2022-10-12T07:48:45.896Z,100107.34
2022-10-12T07:51:15.708Z,100111.31
2022-10-12T07:53:43.729Z,100107.00
2022-10-12T07:56:15.728Z,100116.69
2022-10-12T07:58:53.693Z,100113.31
2022-10-12T08:01:23.757Z,100109.00
2022-10-12T08:03:53.808Z,100113.94
2022-10-12T08:06:26.879Z,100113.94
2022-10-12T08:08:55.543Z,100116.62
2022-10-12T08:11:25.343Z,100116.62
2022-10-12T08:13:53.766Z,100112.28
2022-10-12T08:16:25.838Z,100111.78
2022-10-12T08:18:55.527Z,100117.19
2022-10-12T08:21:24.300Z,100114.16
2022-10-12T08:23:52.497Z,100105.47
2022-10-12T08:26:20.400Z,100111.66
2022-10-12T08:28:48.756Z,100119.63
2022-10-12T08:31:17.903Z,100114.25
2022-10-12T08:33:45.785Z,100115.19
2022-10-12T08:36:14.093Z,100112.28
2022-10-12T08:38:43.833Z,100110.50
2022-10-12T08:41:47.263Z,100111.25
2022-10-12T08:44:25.614Z,100104.28
2022-10-12T08:47:03.185Z,100108.88
2022-10-12T08:49:32.194Z,100110.88
2022-10-12T08:52:03.442Z,100111.09
2022-10-12T08:54:39.445Z,100108.78
2022-10-12T08:57:15.804Z,100105.34
2022-10-12T08:59:44.584Z,100109.38
2022-10-12T09:02:51.585Z,100114.66
2022-10-12T09:05:28.355Z,100115.22
2022-10-12T09:08:03.425Z,100114.09
2022-10-12T09:10:47.351Z,100105.28
2022-10-12T09:13:48.593Z,100109.38
2022-10-12T09:16:16.734Z,100110.84
2022-10-12T09:18:47.344Z,100112.25
2022-10-12T09:21:20.976Z,100112.97
2022-10-12T09:23:49.422Z,100110.16
2022-10-12T09:26:23.886Z,100110.63
2022-10-12T09:28:57.747Z,100104.97
2022-10-12T09:31:53.673Z,100109.66
2022-10-12T09:34:23.835Z,100101.13
2022-10-12T09:36:51.942Z,100106.97
2022-10-12T09:39:47.122Z,100109.75
2022-10-12T09:42:15.284Z,100111.03
2022-10-12T09:44:51.013Z,100109.56
2022-10-12T09:47:25.165Z,100110.22
2022-10-12T09:49:59.871Z,100111.63
2022-10-12T09:52:41.970Z,100114.19
2022-10-12T09:55:13.353Z,100113.56
2022-10-12T09:57:44.236Z,100117.88
2022-10-12T10:00:31.452Z,100117.56
2022-10-12T10:03:01.075Z,100114.91
2022-10-12T10:05:33.154Z,100111.94
2022-10-12T10:08:20.365Z,100117.00
2022-10-12T10:10:53.615Z,100116.34
2022-10-12T10:13:24.064Z,100118.37
2022-10-12T10:16:03.802Z,100113.19
2022-10-12T10:18:35.903Z,100114.91
2022-10-12T10:21:07.032Z,100115.37
2022-10-12T10:23:51.556Z,100113.84
2022-10-12T10:26:21.785Z,100111.22
2022-10-12T10:28:56.297Z,100108.75
2022-10-12T10:31:29.174Z,100104.94
2022-10-12T10:34:15.745Z,100115.78
2022-10-12T10:36:49.274Z,100108.75
2022-10-12T10:39:19.673Z,100115.50
2022-10-12T10:41:47.815Z,100110.38
2022-10-12T10:44:30.989Z,100115.97
2022-10-12T10:47:02.727Z,100109.03
2022-10-12T10:49:56.044Z,100105.94
2022-10-12T10:52:33.243Z,100107.44
2022-10-12T10:55:10.409Z,100113.38
2022-10-12T10:57:42.955Z,100103.44
2022-10-12T11:00:37.791Z,100102.19
2022-10-12T11:03:13.664Z,100107.44
2022-10-12T11:05:45.952Z,100108.63
2022-10-12T11:08:26.762Z,100101.22
2022-10-12T11:10:57.913Z,100100.84
2022-10-12T11:13:31.596Z,100104.41
2022-10-12T11:16:09.524Z,100100.94
2022-10-12T11:18:46.023Z,100107.47
2022-10-12T11:21:16.313Z,100103.50
2022-10-12T11:24:11.112Z,100107.00
2022-10-12T11:26:45.943Z,100091.22
2022-10-12T11:29:15.423Z,100096.25
2022-10-12T11:31:49.301Z,100094.31
2022-10-12T11:34:19.422Z,100096.16
2022-10-12T11:37:17.727Z,100106.75
2022-10-12T11:39:45.068Z,100094.53
2022-10-12T11:42:21.867Z,100101.84
2022-10-12T11:44:51.795Z,100097.69
2022-10-12T11:47:31.298Z,100097.25
2022-10-12T11:50:05.923Z,100086.66
2022-10-12T11:52:46.407Z,100081.94
2022-10-12T11:55:32.845Z,100087.44
2022-10-12T11:58:13.271Z,100080.06
2022-10-12T12:00:56.335Z,100076.25
2022-10-12T12:03:33.633Z,100084.94
2022-10-12T12:06:30.792Z,100077.69
2022-10-12T12:09:26.678Z,100065.50
2022-10-12T12:12:16.741Z,100070.25
2022-10-12T12:14:53.976Z,100075.16
2022-10-12T12:17:28.005Z,100069.66
2022-10-12T12:20:25.622Z,100063.66
2022-10-12T12:22:55.503Z,100059.25
2022-10-12T12:25:30.504Z,100058.06
2022-10-12T12:28:20.782Z,100064.41
2022-10-12T12:31:00.985Z,100055.78
2022-10-12T12:33:35.757Z,100060.16
2022-10-12T12:36:06.980Z,100059.78
2022-10-12T12:38:53.114Z,100056.78
2022-10-12T12:41:21.854Z,100062.28
2022-10-12T12:43:58.637Z,100060.69
2022-10-12T12:46:52.705Z,100061.00
2022-10-12T12:49:44.217Z,100052.88
2022-10-12T12:52:42.319Z,100053.72
2022-10-12T12:55:16.593Z,100057.09
2022-10-12T12:58:05.706Z,100049.03
2022-10-12T13:00:39.058Z,100051.22
2022-10-12T13:03:25.837Z,100052.50
2022-10-12T13:06:05.586Z,100045.97
2022-10-12T13:08:45.944Z,100046.69
2022-10-12T13:11:43.655Z,100051.00
2022-10-12T13:14:42.604Z,100049.53
2022-10-12T13:17:35.566Z,100046.69
2022-10-12T13:20:17.675Z,100040.37
2022-10-12T13:22:47.848Z,100036.16
2022-10-12T13:25:28.284Z,100040.97
2022-10-12T13:27:57.558Z,100044.28
2022-10-12T13:30:41.290Z,100032.34
2022-10-12T13:33:10.190Z,100038.44
2022-10-12T13:36:20.573Z,100045.06
2022-10-12T13:38:48.446Z,100036.31
2022-10-12T13:41:18.181Z,100042.41
2022-10-12T13:43:50.437Z,100041.91
2022-10-12T13:46:41.536Z,100039.03
2022-10-12T13:49:27.724Z,100034.06
2022-10-12T13:51:57.348Z,100037.19
2022-10-12T13:54:32.401Z,100034.19
2022-10-12T13:57:24.233Z,100029.47
2022-10-12T14:00:01.028Z,100026.66
2022-10-12T14:02:32.144Z,100027.00
2022-10-12T14:05:02.809Z,100028.16
2022-10-12T14:07:39.515Z,100027.09
2022-10-12T14:10:20.076Z,100029.59
2022-10-12T14:12:50.303Z,100023.37
2022-10-12T14:15:19.697Z,100025.09
2022-10-12T14:17:50.956Z,100025.38
2022-10-12T14:20:35.093Z,100026.09
2022-10-12T14:23:05.308Z,100024.09
2022-10-12T14:25:33.753Z,100020.00
2022-10-12T14:28:04.831Z,100023.59
2022-10-12T14:30:39.700Z,100021.59
2022-10-12T14:33:21.373Z,100017.53
2022-10-12T14:35:51.935Z,100022.47
2022-10-12T14:38:46.986Z,100017.03
2022-10-12T14:41:36.823Z,100013.63
2022-10-12T14:44:14.012Z,100018.69
2022-10-12T14:46:52.395Z,100013.00
2022-10-12T14:49:35.405Z,100012.12
2022-10-12T14:52:03.416Z,100018.34
2022-10-12T14:54:31.887Z,100019.06
2022-10-12T14:57:13.779Z,100015.12
2022-10-12T14:59:42.640Z,100014.50
2022-10-12T15:02:22.890Z,100017.41
2022-10-12T15:04:54.936Z,100012.88
2022-10-12T15:07:32.658Z,100013.34
2022-10-12T15:10:01.696Z,100009.34
2022-10-12T15:12:33.036Z,100011.00
2022-10-12T15:15:15.208Z,100014.34
2022-10-12T15:17:43.196Z,100016.22
2022-10-12T15:20:12.227Z,100014.84
2022-10-12T15:22:40.395Z,100014.63
2022-10-12T15:25:24.514Z,100013.41
2022-10-12T15:27:52.683Z,100009.19
2022-10-12T15:30:21.008Z,100011.06
2022-10-12T15:32:48.997Z,100023.69
2022-10-12T15:35:25.328Z,100009.53
2022-10-12T15:37:56.448Z,100014.06
2022-10-12T15:40:25.863Z,100013.34
2022-10-12T15:42:54.314Z,100016.34
2022-10-12T15:45:36.904Z,100007.31
2022-10-12T15:48:06.566Z,100009.91
2022-10-12T15:50:41.594Z,100005.59
2022-10-12T15:53:14.764Z,100015.97
2022-10-12T15:55:42.805Z,100009.78
2022-10-12T15:58:10.985Z,100019.00
2022-10-12T16:00:39.091Z,100007.16
2022-10-12T16:03:07.316Z,100009.47
2022-10-12T16:05:37.153Z,100012.78
2022-10-12T16:08:05.825Z,100016.06
2022-10-12T16:10:39.036Z,100014.97
2022-10-12T16:13:08.616Z,100015.56
2022-10-12T16:15:36.916Z,100012.22
2022-10-12T16:18:05.507Z,100014.66
2022-10-12T16:20:36.888Z,100015.56
2022-10-12T16:23:11.813Z,100014.22
2022-10-12T16:25:39.598Z,100020.63
2022-10-12T16:28:07.774Z,100014.22
2022-10-12T16:30:36.433Z,100008.75
2022-10-12T16:33:04.257Z,100015.88
2022-10-12T16:35:32.438Z,100015.06
2022-10-12T16:38:00.495Z,100013.59
2022-10-12T16:40:28.386Z,100014.47
2022-10-12T16:42:59.075Z,100013.06
2022-10-12T16:45:27.047Z,100009.81
2022-10-12T16:47:54.886Z,100011.84
2022-10-12T16:50:24.261Z,100013.03
2022-10-12T16:52:52.868Z,100013.69
2022-10-12T16:55:20.866Z,100019.75
2022-10-12T16:57:49.322Z,100017.88
2022-10-12T17:00:19.454Z,100019.25
2022-10-12T17:02:48.045Z,100021.72
2022-10-12T17:05:16.267Z,100029.97
2022-10-12T17:07:44.657Z,100032.91
2022-10-12T17:10:12.735Z,100027.56
2022-10-12T17:12:42.858Z,100031.19
2022-10-12T17:15:10.896Z,100029.94
2022-10-12T17:17:38.937Z,100025.97
2022-10-12T17:20:07.530Z,100025.28
2022-10-12T17:22:35.294Z,100025.00
2022-10-12T17:25:03.687Z,100029.06
2022-10-12T17:27:32.563Z,100022.22
2022-10-12T17:30:00.756Z,100039.03
2022-10-12T17:32:28.645Z,100032.19
2022-10-12T17:34:57.083Z,100033.25
2022-10-12T17:37:25.243Z,100038.00
2022-10-12T17:39:53.495Z,100034.75
2022-10-12T17:42:23.575Z,100041.44
2022-10-12T17:44:51.591Z,100042.81
2022-10-12T17:47:20.675Z,100045.59
2022-10-12T17:49:48.944Z,100042.66
2022-10-12T17:52:17.092Z,100041.47
2022-10-12T17:54:45.465Z,100042.53
2022-10-12T17:57:13.885Z,100038.50
2022-10-12T17:59:41.989Z,100045.56
2022-10-12T18:02:10.296Z,100044.06
2022-10-12T18:04:38.511Z,100044.16
2022-10-12T18:07:06.454Z,100045.75
2022-10-12T18:09:34.536Z,100043.63
2022-10-12T18:12:02.728Z,100036.38
2022-10-12T18:14:30.669Z,100039.59
2022-10-12T18:16:59.097Z,100041.78
2022-10-12T18:19:27.377Z,100030.25
2022-10-12T18:21:55.665Z,100033.03
2022-10-12T18:24:23.651Z,100032.94
2022-10-12T18:26:53.649Z,100035.00
2022-10-12T18:29:22.197Z,100043.94
2022-10-12T18:31:50.161Z,100034.16
2022-10-12T18:34:18.324Z,100034.88
2022-10-12T18:36:46.167Z,100042.88
2022-10-12T18:39:14.553Z,100042.94
2022-10-12T18:41:42.925Z,100049.00
2022-10-12T18:44:11.427Z,100045.69
2022-10-12T18:46:39.345Z,100047.56
2022-10-12T18:49:10.488Z,100047.31
2022-10-12T18:51:40.296Z,100043.09
2022-10-12T18:54:11.726Z,100044.00
2022-10-12T18:56:40.676Z,100050.94
2022-10-12T18:59:11.605Z,100041.31
2022-10-12T19:01:39.981Z,100050.94
2022-10-12T19:04:08.466Z,100051.84
2022-10-12T19:06:42.227Z,100048.41
2022-10-12T19:09:14.066Z,100055.44
2022-10-12T19:11:42.075Z,100050.16
2022-10-12T19:14:16.127Z,100052.03
2022-10-12T19:16:44.667Z,100056.31
2022-10-12T19:19:20.484Z,100050.28
2022-10-12T19:21:52.116Z,100060.72
2022-10-12T19:24:21.595Z,100057.25
2022-10-12T19:26:49.469Z,100054.69
2022-10-12T19:29:17.525Z,100058.22
2022-10-12T19:31:48.137Z,100053.97
2022-10-12T19:34:18.368Z,100045.06
2022-10-12T19:36:47.118Z,100055.50
2022-10-12T19:39:18.265Z,100054.69
2022-10-12T19:41:47.086Z,100048.66
2022-10-12T19:44:15.576Z,100054.78
2022-10-12T19:46:47.380Z,100059.97
2022-10-12T19:49:16.645Z,100053.03
2022-10-12T19:51:44.950Z,100053.03
2022-10-12T19:54:14.287Z,100059.12
2022-10-12T19:56:42.545Z,100053.06
2022-10-12T19:59:10.432Z,100050.47
2022-10-12T20:01:39.144Z,100050.50
2022-10-12T20:04:10.240Z,100051.38
2022-10-12T20:06:38.415Z,100055.66
2022-10-12T20:09:07.640Z,100055.66
2022-10-12T20:11:38.540Z,100053.94
2022-10-12T20:14:06.573Z,100054.81
2022-10-12T20:16:35.335Z,100066.97
2022-10-12T20:19:05.699Z,100062.62
2022-10-12T20:21:33.566Z,100066.09
2022-10-12T20:24:01.356Z,100062.59
2022-10-12T20:26:29.496Z,100060.81
2022-10-12T20:28:57.328Z,100066.94
2022-10-12T20:31:27.572Z,100069.53
2022-10-12T20:33:56.791Z,100060.91
2022-10-12T20:36:29.687Z,100065.16
2022-10-12T20:38:59.186Z,100064.37
2022-10-12T20:41:28.030Z,100064.34
2022-10-12T20:44:00.554Z,100063.47
2022-10-12T20:46:29.595Z,100061.75
2022-10-12T20:48:59.532Z,100064.34
2022-10-12T20:51:44.755Z,100068.69
2022-10-12T20:54:15.957Z,100071.31
2022-10-12T20:56:44.366Z,100069.59
2022-10-12T20:59:12.560Z,100069.56
2022-10-12T21:01:40.295Z,100064.37
2022-10-12T21:04:10.334Z,100069.59
2022-10-12T21:06:38.693Z,100064.34
2022-10-12T21:09:06.595Z,100074.81
2022-10-12T21:11:34.773Z,100072.19
2022-10-12T21:14:02.844Z,100075.66
2022-10-12T21:16:31.174Z,100069.56
2022-10-12T21:18:59.237Z,100071.31
2022-10-12T21:21:28.964Z,100071.31
2022-10-12T21:23:58.763Z,100067.84
2022-10-12T21:26:28.295Z,100069.56
2022-10-12T21:28:56.496Z,100059.16
2022-10-12T21:31:27.125Z,100066.09
2022-10-12T21:34:01.616Z,100057.44
2022-10-12T21:36:30.905Z,100062.62
2022-10-12T21:38:59.085Z,100056.53
2022-10-12T21:41:28.865Z,100058.31
2022-10-12T21:43:57.502Z,100060.91
2022-10-12T21:46:30.633Z,100060.87
2022-10-12T21:48:59.773Z,100050.47
2022-10-12T21:51:30.136Z,100051.34
2022-10-12T21:53:58.505Z,100053.94
2022-10-12T21:56:28.326Z,100055.69
2022-10-12T21:58:58.315Z,100059.16
2022-10-12T22:01:44.353Z,100056.56
2022-10-12T22:04:14.833Z,100055.69
2022-10-12T22:06:43.606Z,100048.75
2022-10-12T22:09:17.075Z,100055.69
2022-10-12T22:11:46.796Z,100057.41
2022-10-12T22:14:17.997Z,100058.28
2022-10-12T22:16:46.502Z,100059.16
2022-10-12T22:19:19.024Z,100055.69
2022-10-12T22:21:51.242Z,100069.44
2022-10-12T22:24:20.746Z,100065.25
2022-10-12T22:26:49.237Z,100058.28
2022-10-12T22:29:16.943Z,100061.75
2022-10-12T22:31:45.909Z,100062.62
2022-10-12T22:34:16.017Z,100060.91
2022-10-12T22:36:44.337Z,100055.69
2022-10-12T22:39:13.324Z,100055.69
2022-10-12T22:41:44.795Z,100048.75
2022-10-12T22:44:12.645Z,100048.72
2022-10-12T22:46:40.455Z,100051.34
2022-10-12T22:49:08.565Z,100050.47
2022-10-12T22:51:39.267Z,100044.41
2022-10-12T22:54:07.478Z,100042.66
2022-10-12T22:56:37.854Z,100047.00
2022-10-12T22:59:08.673Z,100043.56
2022-10-12T23:01:37.315Z,100051.34
2022-10-12T23:04:05.313Z,100048.72
2022-10-12T23:06:33.264Z,100047.00
2022-10-12T23:09:01.705Z,100047.00
2022-10-12T23:11:29.843Z,100053.09
2022-10-12T23:13:58.165Z,100057.41
2022-10-12T23:16:31.423Z,100050.47
2022-10-12T23:19:01.833Z,100049.53
2022-10-12T23:21:30.727Z,100052.97
2022-10-12T23:24:00.220Z,100047.72
2022-10-12T23:26:29.330Z,100055.59
2022-10-12T23:28:57.937Z,100057.31
2022-10-12T23:31:27.996Z,100049.59
2022-10-12T23:33:58.127Z,100052.22
2022-10-12T23:36:26.685Z,100050.50
2022-10-12T23:38:54.483Z,100053.84
2022-10-12T23:41:22.304Z,100054.59
2022-10-12T23:43:50.353Z,100049.63
2022-10-12T23:46:18.085Z,100044.37
2022-10-12T23:48:45.895Z,100054.81
2022-10-12T23:51:14.052Z,100058.28
2022-10-12T23:53:42.703Z,100057.44
2022-10-12T23:56:10.823Z,100054.81
2022-10-12T23:58:38.958Z,100054.81
